Llandrindod Wells, United Kingdom
Current Conditions -  °F | °C
As of 7:50 PM on Saturday 20 Dec 2014 (Local Time) from EGOS Reporting Station
Broken Clouds Broken Clouds  
Wind Chill: 41°   Ceiling: 3800
Heat Index: 45°   Visibility: 6mi
Dew Point: 39°   Wind: 6mph
Humidity: 81%   Direction: 210°SSW
Pressure: 30.39"   Gusts: NA
Location:  52.24°N, 3.38°W
Report Text: EGOS 201950Z AUTO 21005KT 9999 BKN038/// 07/04 Q1029
Loading
Personal Weather Stations






























Interactive Weather Map New forecast layout! Learn more

10-Day Weather Forecast

Advertisements
Track Severe Weather on mobile